Time;durP1;ratioP1;P1;durP2;ratioP2;P2;SDS_P1;SDS_P2;PMS_P1;PMS_P2;Temp;Humidity;BMP_temperature;BMP_pressure;BME280_temperature;BME280_humidity;BME280_pressure;Samples;Min_cycle;Max_cycle;Signal;HPM_P1;HPM_P2
2023/03/24 00:01:02;;;;;;;3.45;1.75;;;;;;;11.29;100.00;99847.97;5070289;28;20041;-36
2023/03/24 00:03:29;;;;;;;3.38;1.70;;;;;;;11.26;100.00;99839.56;5068488;28;20032;-36
2023/03/24 00:05:57;;;;;;;4.50;1.70;;;;;;;11.30;100.00;99832.56;5070532;28;20032;-36
2023/03/24 00:08:23;;;;;;;3.80;1.77;;;;;;;11.28;100.00;99832.00;5069282;28;20534;-36
2023/03/24 00:10:49;;;;;;;2.72;1.88;;;;;;;11.31;100.00;99832.28;5070159;28;20385;-36
2023/03/24 00:13:15;;;;;;;3.88;1.92;;;;;;;11.30;100.00;99819.84;5059338;28;20087;-36
2023/03/24 00:15:41;;;;;;;4.05;1.83;;;;;;;11.26;100.00;99812.50;5056092;28;20420;-36
2023/03/24 00:18:09;;;;;;;4.97;1.92;;;;;;;11.27;100.00;99808.72;5056764;28;20033;-36
2023/03/24 00:20:34;;;;;;;3.92;1.77;;;;;;;11.34;100.00;99820.13;5056189;28;20115;-36
2023/03/24 00:23:00;;;;;;;3.40;1.90;;;;;;;11.35;100.00;99810.94;5056094;28;20064;-36
2023/03/24 00:25:32;;;;;;;3.47;2.00;;;;;;;11.37;100.00;99813.38;5056990;28;20029;-36
2023/03/24 00:27:58;;;;;;;3.53;1.42;;;;;;;11.38;100.00;99818.53;5056348;28;20259;-36
2023/03/24 00:30:24;;;;;;;2.25;1.55;;;;;;;11.35;100.00;99798.22;5056873;28;20035;-36
2023/03/24 00:32:50;;;;;;;3.00;1.55;;;;;;;11.45;100.00;99808.28;5055940;28;20063;-36
2023/03/24 00:35:16;;;;;;;2.40;1.60;;;;;;;11.51;100.00;99809.13;5056233;28;20032;-36
2023/03/24 00:37:43;;;;;;;1.80;1.35;;;;;;;11.46;100.00;99801.78;5055840;28;20377;-36
2023/03/24 00:40:12;;;;;;;2.05;1.40;;;;;;;11.57;100.00;99808.91;5056010;28;20492;-36
2023/03/24 00:42:40;;;;;;;4.47;1.52;;;;;;;11.54;100.00;99792.38;5055771;28;20021;-36
2023/03/24 00:45:08;;;;;;;2.20;1.52;;;;;;;11.62;100.00;99785.66;5056013;28;20052;-36
2023/03/24 00:47:36;;;;;;;2.20;1.25;;;;;;;11.64;100.00;99788.91;5055903;28;20025;-36
2023/03/24 00:50:08;;;;;;;2.03;1.40;;;;;;;11.60;100.00;99778.59;5055628;28;20063;-36
2023/03/24 00:52:33;;;;;;;2.45;1.35;;;;;;;11.72;100.00;99785.69;5055594;28;20461;-36
2023/03/24 00:55:01;;;;;;;2.35;1.40;;;;;;;11.73;100.00;99777.31;5055921;28;20077;-37
2023/03/24 00:57:28;;;;;;;2.22;1.40;;;;;;;11.76;100.00;99784.91;5055497;28;20071;-36
2023/03/24 00:59:55;;;;;;;2.97;1.85;;;;;;;11.75;100.00;99763.47;5055499;28;20060;-36
2023/03/24 01:02:26;;;;;;;3.20;1.70;;;;;;;11.82;100.00;99766.81;5055138;28;20136;-35
2023/03/24 01:05:00;;;;;;;1.63;1.30;;;;;;;11.78;100.00;99749.44;5055656;28;20090;-35
2023/03/24 01:07:28;;;;;;;2.70;1.50;;;;;;;11.84;100.00;99759.22;5055132;28;20053;-35
2023/03/24 01:09:58;;;;;;;2.45;1.40;;;;;;;11.79;100.00;99753.75;5054976;28;20029;-35
2023/03/24 01:12:29;;;;;;;2.55;1.30;;;;;;;11.88;100.00;99757.63;5053951;28;20036;-35
2023/03/24 01:14:56;;;;;;;2.38;1.10;;;;;;;11.83;100.00;99744.06;5055774;28;20040;-35
2023/03/24 01:17:24;;;;;;;2.03;1.30;;;;;;;11.89;100.00;99755.72;5054783;28;20393;-35
2023/03/24 01:19:50;;;;;;;2.95;1.30;;;;;;;11.85;100.00;99739.97;5055906;28;20041;-35
2023/03/24 01:22:15;;;;;;;2.75;1.50;;;;;;;11.81;100.00;99744.28;5055011;28;20033;-36
2023/03/24 01:24:42;;;;;;;1.98;1.27;;;;;;;11.86;100.00;99757.06;5054820;28;20025;-36
2023/03/24 01:27:08;;;;;;;2.55;1.30;;;;;;;11.82;100.00;99737.81;5055240;28;20029;-36
2023/03/24 01:29:33;;;;;;;2.80;1.45;;;;;;;11.82;100.00;99745.13;5055424;28;20116;-36
2023/03/24 01:31:58;;;;;;;1.67;1.15;;;;;;;11.79;100.00;99741.03;5054797;28;20479;-37
2023/03/24 01:34:24;;;;;;;2.30;1.40;;;;;;;11.79;100.00;99748.34;5055435;28;20071;-36
2023/03/24 01:36:49;;;;;;;2.50;1.38;;;;;;;11.74;100.00;99734.78;5054437;28;20528;-36
2023/03/24 01:39:15;;;;;;;2.63;1.38;;;;;;;11.71;100.00;99728.00;5055396;28;20041;-36
2023/03/24 01:41:40;;;;;;;2.95;1.75;;;;;;;11.69;100.00;99723.94;5054508;28;20028;-36
2023/03/24 01:44:26;;;;;;;1.98;1.27;;;;;;;11.70;100.00;99726.38;5054331;28;20104;-35
2023/03/24 01:46:53;;;;;;;3.53;1.35;;;;;;;11.58;100.00;99712.25;5055072;28;20021;-36
2023/03/24 01:49:19;;;;;;;2.60;1.27;;;;;;;11.64;100.00;99726.63;5054441;28;20033;-35
2023/03/24 01:51:47;;;;;;;;;;;;;;;11.65;100.00;99722.81;5055481;28;20037;-35
2023/03/24 01:54:27;;;;;;;3.53;1.60;;;;;;;11.59;100.00;99727.41;5054446;28;19910;-35
2023/03/24 01:56:58;;;;;;;2.45;1.35;;;;;;;11.59;100.00;99720.09;5055216;28;20358;-35
2023/03/24 01:59:28;;;;;;;2.38;1.60;;;;;;;11.60;100.00;99726.31;5054670;28;20400;-35
2023/03/24 02:02:01;;;;;;;2.63;1.75;;;;;;;11.52;100.00;99697.06;5055142;28;20048;-36
2023/03/24 02:04:30;;;;;;;2.28;1.60;;;;;;;11.61;100.00;99711.69;5054828;28;20112;-35
2023/03/24 02:06:58;;;;;;;2.53;1.52;;;;;;;11.62;100.00;99702.53;5054871;28;20033;-35
2023/03/24 02:09:23;;;;;;;3.95;1.85;;;;;;;11.59;100.00;99709.28;5054456;28;20021;-36
2023/03/24 02:11:48;;;;;;;2.53;1.70;;;;;;;11.62;100.00;99710.66;5053887;28;20398;-36
2023/03/24 02:14:14;;;;;;;2.13;1.43;;;;;;;11.61;100.00;99703.56;5054597;28;20122;-36
2023/03/24 02:17:01;;;;;;;3.97;1.50;;;;;;;11.60;100.00;99700.06;5054027;28;20274;-35
2023/03/24 02:19:46;;;;;;;3.55;1.67;;;;;;;11.57;100.00;99711.44;5054057;28;20461;-35
2023/03/24 02:22:49;;;;;;;2.83;1.70;;;;;;;11.55;100.00;99705.47;5054122;28;20460;-35
2023/03/24 02:25:24;;;;;;;3.08;1.70;;;;;;;11.53;100.00;99707.63;5054200;28;20430;-36
2023/03/24 02:28:01;;;;;;;7.10;2.05;;;;;;;11.53;100.00;99699.50;5053835;28;20024;-36
2023/03/24 02:30:33;;;;;;;3.03;1.60;;;;;;;11.48;100.00;99695.97;5053526;28;20453;-35
2023/03/24 02:33:12;;;;;;;3.00;1.98;;;;;;;11.44;100.00;99709.22;5054358;28;20067;-35
2023/03/24 02:35:56;;;;;;;2.97;1.75;;;;;;;11.50;100.00;99716.28;5053482;28;20044;-35
2023/03/24 02:38:48;;;;;;;2.70;1.60;;;;;;;11.48;100.00;99707.59;5053995;28;20432;-35
2023/03/24 02:41:20;;;;;;;2.45;1.52;;;;;;;11.36;100.00;99685.34;5053888;28;20021;-36
2023/03/24 02:43:57;;;;;;;2.50;1.70;;;;;;;11.46;100.00;99698.91;5053870;28;20043;-35
2023/03/24 02:46:38;;;;;;;2.22;1.52;;;;;;;11.47;100.00;99695.16;5053561;28;20037;-35
2023/03/24 02:49:09;;;;;;;3.63;1.65;;;;;;;11.46;100.00;99690.81;5053834;28;20029;-35
2023/03/24 02:52:02;;;;;;;3.33;1.70;;;;;;;11.48;100.00;99713.03;5053246;28;20037;-35
2023/03/24 02:54:34;;;;;;;4.80;1.67;;;;;;;11.48;100.00;99713.03;5054329;28;20453;-36
2023/03/24 02:57:17;;;;;;;2.63;1.45;;;;;;;11.51;100.00;99727.91;5053769;28;20484;-36
2023/03/24 02:59:52;;;;;;;1.75;1.55;;;;;;;11.43;100.00;99710.28;5053422;28;20025;-36
2023/03/24 03:02:35;;;;;;;2.95;1.63;;;;;;;11.46;100.00;99726.00;5053156;28;20540;-36
2023/03/24 03:05:31;;;;;;;3.35;2.08;;;;;;;11.52;100.00;99741.19;5053443;28;20051;-36
2023/03/24 03:08:00;;;;;;;2.58;1.70;;;;;;;11.49;100.00;99757.16;5044378;28;20041;-35
2023/03/24 03:10:30;;;;;;;2.97;1.80;;;;;;;11.47;100.00;99770.16;5053702;28;20066;-36
2023/03/24 03:12:59;;;;;;;2.05;1.30;;;;;;;11.53;100.00;99780.72;5053867;28;20017;-41
2023/03/24 03:15:34;;;;;;;1.38;1.00;;;;;;;11.45;100.00;99789.34;5053583;28;20056;-36
2023/03/24 03:18:10;;;;;;;1.52;0.90;;;;;;;11.29;100.00;99768.69;5053383;28;20416;-36
2023/03/24 03:20:49;;;;;;;2.35;0.90;;;;;;;11.24;100.00;99793.00;5053023;28;20098;-36
2023/03/24 03:23:19;;;;;;;1.63;0.70;;;;;;;11.20;100.00;99818.94;5053273;28;20478;-36
2023/03/24 03:25:50;;;;;;;0.82;0.60;;;;;;;11.12;100.00;99814.81;5053292;28;20029;-36
2023/03/24 03:28:20;;;;;;;1.73;0.70;;;;;;;11.05;100.00;99812.34;5053495;28;20354;-36
2023/03/24 03:30:51;;;;;;;2.08;0.70;;;;;;;10.96;100.00;99827.44;5054012;28;20021;-36
2023/03/24 03:33:23;;;;;;;3.00;0.80;;;;;;;10.90;100.00;99830.34;5053492;28;20085;-36
2023/03/24 03:36:14;;;;;;;2.95;1.00;;;;;;;10.86;100.00;99838.16;5052782;28;20035;-36
2023/03/24 03:39:07;;;;;;;1.90;0.70;;;;;;;10.78;100.00;99854.84;5052801;28;20021;-36
2023/03/24 03:41:32;;;;;;;4.40;0.80;;;;;;;10.69;100.00;99867.22;5053260;28;20413;-36
2023/03/24 03:43:59;;;;;;;3.88;1.27;;;;;;;10.66;100.00;99881.25;5053074;28;20029;-36
2023/03/24 03:46:25;;;;;;;2.47;0.80;;;;;;;10.57;100.00;99868.16;5053051;28;20032;-36
2023/03/24 03:48:52;;;;;;;2.47;1.00;;;;;;;10.51;100.00;99888.13;5055764;28;20032;-36
2023/03/24 03:51:17;;;;;;;;;;;;;;;10.54;100.00;99895.72;5058084;28;20469;-36
2023/03/24 03:54:08;;;;;;;5.63;1.42;;;;;;;10.44;100.00;99879.41;5056747;28;19940;-36
2023/03/24 03:56:36;;;;;;;6.72;2.17;;;;;;;10.39;100.00;99882.03;5054841;28;20504;-36
2023/03/24 03:59:02;;;;;;;3.83;1.40;;;;;;;10.34;100.00;99881.97;5056620;28;20025;-36
2023/03/24 04:01:30;;;;;;;3.15;1.10;;;;;;;10.23;100.00;99875.59;5056931;28;20056;-36
2023/03/24 04:03:58;;;;;;;4.78;1.30;;;;;;;10.27;100.00;99895.69;5056824;28;20032;-36
2023/03/24 04:06:43;;;;;;;3.10;1.40;;;;;;;10.22;100.00;99901.00;5056850;28;20458;-36
2023/03/24 04:09:36;;;;;;;5.30;1.35;;;;;;;10.19;100.00;99906.06;5056752;28;20044;-36
2023/03/24 04:12:17;;;;;;;4.55;1.55;;;;;;;10.11;100.00;99899.25;5055496;28;20033;-36
2023/03/24 04:15:01;;;;;;;5.10;1.58;;;;;;;10.13;100.00;99918.69;5056365;28;20036;-36
2023/03/24 04:17:43;;;;;;;3.88;1.67;;;;;;;10.10;100.00;99924.59;5056627;28;20461;-36
2023/03/24 04:20:15;;;;;;;6.90;2.55;;;;;;;10.11;100.00;99933.53;5056216;28;20036;-36
2023/03/24 04:23:13;;;;;;;4.85;2.13;;;;;;;10.10;100.00;99935.41;5056506;28;20028;-36
2023/03/24 04:26:09;;;;;;;4.90;2.13;;;;;;;10.12;100.00;99954.06;5056372;28;20040;-36
2023/03/24 04:28:46;;;;;;;3.42;1.90;;;;;;;10.11;100.00;99955.16;5056636;28;20511;-36
2023/03/24 04:31:28;;;;;;;7.28;2.10;;;;;;;10.10;100.00;99956.19;5056017;28;20049;-36
2023/03/24 04:34:04;;;;;;;5.32;2.10;;;;;;;10.01;100.00;99955.81;5056567;28;20052;-36
2023/03/24 04:36:41;;;;;;;6.60;2.10;;;;;;;9.92;100.00;99944.63;5056250;28;20212;-36
2023/03/24 04:39:12;;;;;;;7.82;2.00;;;;;;;9.97;100.00;99951.97;5055895;28;20268;-36
2023/03/24 04:41:38;;;;;;;7.68;2.45;;;;;;;9.93;100.00;99951.66;5055593;28;20131;-36
2023/03/24 04:44:04;;;;;;;7.97;2.10;;;;;;;9.99;100.00;99982.25;5055544;28;20100;-36
2023/03/24 04:46:31;;;;;;;9.00;2.70;;;;;;;9.94;100.00;99983.00;5055524;28;20465;-36
2023/03/24 04:48:57;;;;;;;6.38;2.17;;;;;;;9.89;100.00;99977.50;5055672;28;20017;-36
2023/03/24 04:51:23;;;;;;;5.40;2.13;;;;;;;9.83;100.00;99975.81;5055980;28;20055;-36
2023/03/24 04:53:48;;;;;;;5.78;2.15;;;;;;;9.87;100.00;99986.94;5054091;28;20032;-36
2023/03/24 04:56:26;;;;;;;8.90;2.43;;;;;;;9.82;100.00;99987.69;5055875;28;20116;-36
2023/03/24 04:58:51;;;;;;;5.40;1.90;;;;;;;9.77;100.00;99982.22;5055376;28;20321;-36
2023/03/24 05:01:20;;;;;;;6.72;1.98;;;;;;;9.71;100.00;99984.00;5056098;28;20369;-36
2023/03/24 05:03:46;;;;;;;9.25;1.90;;;;;;;9.70;100.00;99990.44;5055985;28;20033;-36
2023/03/24 05:06:11;;;;;;;7.40;1.92;;;;;;;9.68;100.00;99991.78;5056259;28;20078;-36
2023/03/24 05:08:37;;;;;;;5.28;2.58;;;;;;;9.67;100.00;100006.34;5055328;28;20096;-36
2023/03/24 05:11:03;;;;;;;3.58;1.65;;;;;;;9.61;100.00;99996.50;5055010;28;20032;-36
2023/03/24 05:13:28;;;;;;;5.20;2.00;;;;;;;9.51;100.00;99980.97;5055728;28;20079;-36
2023/03/24 05:15:57;;;;;;;7.13;2.07;;;;;;;9.56;100.00;100005.34;5054953;28;20033;-36
2023/03/24 05:18:22;;;;;;;4.40;1.55;;;;;;;9.48;100.00;100009.28;5055713;28;20139;-36
2023/03/24 05:20:48;;;;;;;5.90;2.00;;;;;;;9.49;100.00;100012.78;5055120;28;20138;-36
2023/03/24 05:23:13;;;;;;;5.85;1.88;;;;;;;9.44;100.00;100013.50;5055025;28;20028;-36
2023/03/24 05:25:39;;;;;;;6.50;1.83;;;;;;;9.45;100.00;100020.53;5055896;28;20100;-36
2023/03/24 05:28:04;;;;;;;6.80;2.40;;;;;;;9.46;100.00;100021.34;5055525;28;20118;-36
2023/03/24 05:30:30;;;;;;;8.63;2.35;;;;;;;9.47;100.00;100029.22;5055775;28;20079;-36
2023/03/24 05:32:56;;;;;;;7.25;1.80;;;;;;;9.50;100.00;100026.03;5054919;28;20091;-36
2023/03/24 05:35:25;;;;;;;7.32;2.20;;;;;;;9.44;100.00;100021.63;5054574;28;20033;-36
2023/03/24 05:37:50;;;;;;;10.35;2.00;;;;;;;9.50;100.00;100041.41;5054524;28;20481;-36
2023/03/24 05:40:16;;;;;;;9.48;2.47;;;;;;;9.50;100.00;100044.09;5055280;28;20044;-36
2023/03/24 05:42:42;;;;;;;6.60;2.38;;;;;;;9.50;100.00;100050.31;5054686;28;20028;-36
2023/03/24 05:45:08;;;;;;;10.75;2.33;;;;;;;9.50;100.00;100052.19;5054370;28;20178;-35
2023/03/24 05:47:34;;;;;;;6.75;2.47;;;;;;;9.48;100.00;100051.63;5054496;28;20032;-35
2023/03/24 05:49:59;;;;;;;9.30;2.50;;;;;;;9.47;100.00;100050.81;5055021;28;20029;-35
2023/03/24 05:52:25;;;;;;;10.05;3.15;;;;;;;9.45;100.00;100052.13;5054945;28;20275;-35
2023/03/24 05:54:51;;;;;;;;;;;;;;;9.51;100.00;100056.53;5055381;28;20029;-35
2023/03/24 05:57:17;;;;;;;7.07;2.20;;;;;;;9.46;100.00;100051.03;5054014;28;20436;-35
2023/03/24 05:59:42;;;;;;;9.90;2.47;;;;;;;9.36;100.00;100048.16;5055056;28;20033;-35
2023/03/24 06:02:08;;;;;;;5.23;1.80;;;;;;;9.44;100.00;100059.38;5054408;28;20061;-35
2023/03/24 06:04:33;;;;;;;5.17;1.73;;;;;;;9.41;100.00;100057.16;5054312;28;20303;-35
2023/03/24 06:06:59;;;;;;;7.53;2.30;;;;;;;9.40;100.00;100058.22;5054248;28;20427;-35
2023/03/24 06:09:28;;;;;;;8.02;2.00;;;;;;;9.44;100.00;100067.50;5055112;28;20028;-35
2023/03/24 06:11:54;;;;;;;8.32;2.58;;;;;;;9.44;100.00;100054.00;5053640;28;20431;-35
2023/03/24 06:14:20;;;;;;;8.32;2.15;;;;;;;9.50;100.00;100057.59;5054059;28;20024;-35
2023/03/24 06:16:49;;;;;;;6.15;1.90;;;;;;;9.53;100.00;100059.81;5054172;28;20040;-35
2023/03/24 06:19:16;;;;;;;8.35;2.30;;;;;;;9.54;100.00;100064.16;5053904;28;20409;-36
2023/03/24 06:21:43;;;;;;;8.10;2.65;;;;;;;9.52;100.00;100061.72;5054162;28;20075;-36
2023/03/24 06:24:13;;;;;;;14.20;3.13;;;;;;;9.55;100.00;100066.59;5053940;28;20021;-37
2023/03/24 06:26:40;;;;;;;7.70;2.30;;;;;;;9.60;100.00;100075.84;5054163;28;20477;-36
2023/03/24 06:29:06;;;;;;;8.30;2.47;;;;;;;9.64;100.00;100079.72;5053823;28;20063;-36
2023/03/24 06:31:33;;;;;;;10.63;2.53;;;;;;;9.63;100.00;100080.78;5054114;28;20120;-36
2023/03/24 06:33:58;;;;;;;7.93;2.63;;;;;;;9.59;100.00;100080.44;5053716;28;20033;-36
2023/03/24 06:36:24;;;;;;;8.77;2.53;;;;;;;9.50;100.00;100063.00;5054331;28;20036;-37
2023/03/24 06:38:50;;;;;;;6.60;1.75;;;;;;;9.58;100.00;100080.69;5053358;28;20025;-37
2023/03/24 06:41:15;;;;;;;9.65;2.63;;;;;;;9.52;100.00;100075.19;5054457;28;20028;-35
2023/03/24 06:43:40;;;;;;;10.33;2.37;;;;;;;9.61;100.00;100097.19;5053663;28;20032;-36
2023/03/24 06:46:06;;;;;;;7.10;2.10;;;;;;;9.67;100.00;100098.94;5053666;28;20538;-35
2023/03/24 06:48:32;;;;;;;7.32;1.92;;;;;;;9.75;100.00;100100.41;5054073;28;20027;-35
2023/03/24 06:50:57;;;;;;;8.07;2.53;;;;;;;9.82;100.00;100094.88;5053560;28;20029;-35
2023/03/24 06:53:23;;;;;;;7.60;2.23;;;;;;;9.87;100.00;100103.88;5053813;28;20369;-35
2023/03/24 06:55:49;;;;;;;12.00;2.83;;;;;;;9.78;100.00;100078.34;5053885;28;20029;-36
2023/03/24 06:58:15;;;;;;;9.77;2.30;;;;;;;9.97;100.00;100104.03;5053455;28;20107;-35
2023/03/24 07:00:41;;;;;;;12.95;2.78;;;;;;;10.02;100.00;100103.31;5053634;28;20029;-36
2023/03/24 07:03:07;;;;;;;9.07;2.20;;;;;;;10.07;100.00;100104.22;5053660;28;20048;-36
2023/03/24 07:05:41;;;;;;;12.90;3.03;;;;;;;10.04;100.00;100104.69;5052743;28;20381;-36
2023/03/24 07:08:06;;;;;;;8.80;2.65;;;;;;;9.99;100.00;100096.50;5053186;28;20094;-35
2023/03/24 07:10:32;;;;;;;8.07;2.20;;;;;;;10.14;100.00;100103.22;5053995;28;20461;-36
2023/03/24 07:12:58;;;;;;;9.10;2.90;;;;;;;10.17;100.00;100108.13;5053077;28;20267;-35
2023/03/24 07:15:24;;;;;;;;;;;;;;;10.25;100.00;100115.88;5054636;28;20033;-35
2023/03/24 07:17:49;;;;;;;6.90;2.20;;;;;;;10.24;100.00;100119.63;5053205;28;19912;-36
2023/03/24 07:20:14;;;;;;;11.40;2.03;;;;;;;10.31;100.00;100129.22;5053244;28;20306;-35
2023/03/24 07:22:40;;;;;;;6.57;2.15;;;;;;;10.35;100.00;100126.84;5054402;28;20460;-35
2023/03/24 07:25:06;;;;;;;5.57;1.88;;;;;;;10.32;100.00;100121.91;5057605;28;20032;-37
2023/03/24 07:27:32;;;;;;;10.35;2.50;;;;;;;10.42;100.00;100130.19;5057222;28;20032;-35
2023/03/24 07:29:58;;;;;;;;;;;;;;;10.47;100.00;100138.38;5058241;28;20358;-36
2023/03/24 07:32:24;;;;;;;9.35;2.22;;;;;;;10.44;100.00;100132.63;5057115;28;19915;-35
2023/03/24 07:34:49;;;;;;;11.65;3.30;;;;;;;10.46;100.00;100125.09;5057657;28;20031;-36
2023/03/24 07:37:15;;;;;;;6.57;2.13;;;;;;;10.56;100.00;100142.28;5056835;28;20112;-35
2023/03/24 07:39:40;;;;;;;10.32;2.53;;;;;;;10.50;100.00;100128.97;5057072;28;20053;-35
2023/03/24 07:42:06;;;;;;;8.70;2.30;;;;;;;10.55;100.00;100137.97;5056860;28;20021;-35
2023/03/24 07:44:32;;;;;;;9.13;2.25;;;;;;;10.61;100.00;100143.44;5056964;28;20270;-35
2023/03/24 07:46:57;;;;;;;8.35;2.10;;;;;;;10.73;100.00;100149.53;5056558;28;20031;-35
2023/03/24 07:49:22;;;;;;;9.43;2.50;;;;;;;10.79;100.00;100143.97;5072649;28;20071;-36
2023/03/24 07:51:48;;;;;;;12.97;3.33;;;;;;;10.90;100.00;100155.75;5056746;28;20033;-35
2023/03/24 07:54:13;;;;;;;10.50;2.60;;;;;;;10.91;100.00;100159.28;5057101;28;20025;-36
2023/03/24 07:56:38;;;;;;;10.00;2.30;;;;;;;10.96;100.00;100160.16;5057040;28;20256;-37
2023/03/24 07:59:04;;;;;;;12.13;2.53;;;;;;;11.06;100.00;100163.00;5056614;28;20029;-36
2023/03/24 08:01:29;;;;;;;18.23;3.63;;;;;;;11.20;100.00;100155.31;5056564;28;20028;-36
2023/03/24 08:03:55;;;;;;;10.25;2.30;;;;;;;11.27;100.00;100176.78;5056956;28;20029;-36
2023/03/24 08:06:20;;;;;;;9.57;2.38;;;;;;;11.32;100.00;100171.44;5056523;28;20032;-37
2023/03/24 08:08:46;;;;;;;7.00;2.30;;;;;;;11.30;100.00;100160.88;5056513;28;20052;-37
2023/03/24 08:11:11;;;;;;;8.40;2.20;;;;;;;11.09;100.00;100148.16;5056529;28;20037;-36
2023/03/24 08:13:36;;;;;;;7.43;2.57;;;;;;;11.09;100.00;100169.81;5056728;28;20028;-37
2023/03/24 08:16:03;;;;;;;8.03;2.30;;;;;;;11.01;100.00;100186.47;5056385;28;20037;-36
2023/03/24 08:18:30;;;;;;;9.63;2.53;;;;;;;10.95;100.00;100184.75;5056308;28;20279;-36
2023/03/24 08:20:57;;;;;;;11.25;2.35;;;;;;;10.84;100.00;100175.69;5056194;28;20107;-35
2023/03/24 08:23:24;;;;;;;8.50;2.67;;;;;;;10.91;100.00;100173.63;5056469;28;20052;-35
2023/03/24 08:25:49;;;;;;;;;;;;;;;11.04;100.00;100184.09;5057196;28;20020;-36
2023/03/24 08:28:15;;;;;;;10.80;2.58;;;;;;;10.98;100.00;100182.38;5056069;28;20296;-35
2023/03/24 08:30:42;;;;;;;6.75;2.25;;;;;;;11.08;100.00;100190.63;5056388;28;20025;-36
2023/03/24 08:33:10;;;;;;;9.60;2.60;;;;;;;11.09;100.00;100180.63;5055193;28;20033;-36
2023/03/24 08:35:39;;;;;;;11.20;2.75;;;;;;;11.18;100.00;100189.13;5056844;28;20402;-36
2023/03/24 08:38:06;;;;;;;10.20;3.22;;;;;;;11.24;100.00;100188.13;5056453;28;20029;-36
2023/03/24 08:40:33;;;;;;;9.10;2.28;;;;;;;11.23;100.00;100208.16;5056303;28;20036;-36
2023/03/24 08:43:02;;;;;;;7.40;2.20;;;;;;;11.21;100.00;100196.72;5055782;28;20064;-36
2023/03/24 08:45:29;;;;;;;7.28;2.20;;;;;;;11.25;100.00;100204.09;5056107;28;20029;-36
2023/03/24 08:47:57;;;;;;;7.68;2.30;;;;;;;11.25;100.00;100206.00;5055985;28;20029;-36
2023/03/24 08:50:26;;;;;;;8.57;2.60;;;;;;;11.20;100.00;100195.09;5055984;28;20028;-36
2023/03/24 08:52:52;;;;;;;8.77;2.30;;;;;;;11.30;100.00;100214.19;5055922;28;20391;-36
2023/03/24 08:55:19;;;;;;;9.57;2.33;;;;;;;11.31;100.00;100222.03;5055661;28;20052;-36
2023/03/24 08:57:44;;;;;;;8.27;2.25;;;;;;;11.26;100.00;100213.84;5055790;28;20469;-35
2023/03/24 09:00:14;;;;;;;11.23;2.60;;;;;;;11.23;100.00;100221.69;5055875;28;20059;-35
2023/03/24 09:02:41;;;;;;;6.78;2.05;;;;;;;11.17;100.00;100231.59;5055321;28;20053;-35
2023/03/24 09:05:07;;;;;;;6.88;2.33;;;;;;;11.11;100.00;100224.47;5056311;28;20053;-35
2023/03/24 09:07:32;;;;;;;;;;;;;;;11.21;100.00;100218.38;5056356;28;20103;-36
2023/03/24 09:09:58;;;;;;;7.67;2.13;;;;;;;11.13;100.00;100208.81;5055405;28;19912;-36
2023/03/24 09:12:23;;;;;;;12.33;3.30;;;;;;;11.22;100.00;100218.13;5055307;28;20770;-36
2023/03/24 09:14:49;;;;;;;6.00;2.25;;;;;;;11.30;100.00;100219.59;5055283;28;20389;-36
2023/03/24 09:17:15;;;;;;;9.32;2.42;;;;;;;11.34;100.00;100226.16;5055440;28;20028;-36
2023/03/24 09:19:41;;;;;;;15.30;3.03;;;;;;;11.40;100.00;100227.84;5055767;28;20037;-35
2023/03/24 09:22:06;;;;;;;9.77;3.00;;;;;;;11.49;100.00;100226.34;5055611;28;20029;-35
2023/03/24 09:24:31;;;;;;;8.23;2.13;;;;;;;11.66;100.00;100217.31;5055156;28;20083;-35
2023/03/24 09:26:57;;;;;;;7.57;2.37;;;;;;;11.83;100.00;100235.16;5055053;28;20024;-36
2023/03/24 09:29:23;;;;;;;6.75;2.15;;;;;;;11.89;100.00;100221.69;5053868;28;20267;-36
2023/03/24 09:31:48;;;;;;;6.83;2.60;;;;;;;11.82;100.00;100213.75;5054650;28;20039;-35
2023/03/24 09:34:13;;;;;;;7.43;2.40;;;;;;;11.82;100.00;100232.72;5054977;28;20025;-35
2023/03/24 09:36:39;;;;;;;12.37;2.20;;;;;;;11.79;100.00;100238.59;5055194;28;20266;-35
2023/03/24 09:39:05;;;;;;;7.87;2.30;;;;;;;11.66;100.00;100237.09;5055066;28;20279;-36
2023/03/24 09:41:31;;;;;;;7.05;2.45;;;;;;;11.46;100.00;100247.66;5055202;28;20275;-36
2023/03/24 09:44:17;;;;;;;9.15;2.67;;;;;;;11.33;100.00;100254.28;5054920;28;20029;-35
2023/03/24 09:46:49;;;;;;;7.22;2.03;;;;;;;11.29;100.00;100253.16;5054022;28;20116;-35
2023/03/24 09:49:26;;;;;;;8.13;2.35;;;;;;;11.45;100.00;100254.97;5054924;28;20029;-35
2023/03/24 09:52:13;;;;;;;5.95;2.28;;;;;;;11.70;100.00;100256.38;5055409;28;20416;-36
2023/03/24 09:54:58;;;;;;;6.38;2.10;;;;;;;11.88;100.00;100230.88;5055090;28;20025;-37
2023/03/24 09:57:28;;;;;;;9.15;2.30;;;;;;;11.88;100.00;100253.38;5054721;28;20031;-36
2023/03/24 09:59:54;;;;;;;7.45;2.55;;;;;;;11.83;100.00;100251.41;5054135;28;20032;-36
2023/03/24 10:02:25;;;;;;;9.55;2.30;;;;;;;12.09;100.00;100262.53;5054338;28;20080;-36
2023/03/24 10:04:50;;;;;;;8.40;2.50;;;;;;;12.20;100.00;100268.88;5054597;28;20389;-36
2023/03/24 10:07:42;;;;;;;7.77;2.40;;;;;;;12.41;100.00;100259.06;5054272;28;20035;-36
2023/03/24 10:10:24;;;;;;;6.50;2.70;;;;;;;12.48;100.00;100265.91;5054755;28;20021;-36
2023/03/24 10:12:50;;;;;;;8.50;2.63;;;;;;;12.44;100.00;100258.53;5053875;28;20082;-36
2023/03/24 10:15:37;;;;;;;8.88;2.80;;;;;;;12.34;100.00;100262.78;5053886;28;20032;-36
2023/03/24 10:18:12;;;;;;;9.18;2.38;;;;;;;12.33;100.00;100268.47;5054097;28;20052;-36
2023/03/24 10:20:46;;;;;;;10.25;2.47;;;;;;;12.31;100.00;100273.34;5054252;28;20029;-36
2023/03/24 10:23:23;;;;;;;7.57;2.10;;;;;;;12.37;100.00;100283.16;5053977;28;20049;-36
2023/03/24 10:26:10;;;;;;;7.93;2.58;;;;;;;12.41;100.00;100278.88;5053942;28;20029;-36
2023/03/24 10:28:54;;;;;;;7.77;2.57;;;;;;;12.33;100.00;100271.19;5054478;28;20029;-37
2023/03/24 10:31:36;;;;;;;8.35;2.38;;;;;;;12.28;99.36;100269.22;5053861;28;20071;-37
2023/03/24 10:34:01;;;;;;;9.63;1.95;;;;;;;12.36;99.66;100273.38;5053802;28;20458;-37
2023/03/24 10:36:28;;;;;;;6.50;2.40;;;;;;;12.46;99.90;100262.63;5054384;28;20035;-37
2023/03/24 10:38:53;;;;;;;;;;;;;;;12.70;100.00;100256.88;5053834;28;20124;-37
2023/03/24 10:41:22;;;;;;;9.63;3.05;;;;;;;12.82;96.21;100260.22;5053580;28;20007;-37
2023/03/24 10:43:50;;;;;;;7.53;2.50;;;;;;;12.90;94.67;100265.16;5053235;28;20107;-36
2023/03/24 10:46:21;;;;;;;7.65;2.25;;;;;;;12.97;93.89;100265.75;5053673;28;20543;-36
2023/03/24 10:48:52;;;;;;;7.93;2.10;;;;;;;13.04;93.65;100244.63;5053613;28;20029;-37
2023/03/24 10:51:25;;;;;;;9.45;2.20;;;;;;;13.23;93.13;100255.91;5054414;28;20040;-37
2023/03/24 10:54:08;;;;;;;8.68;2.17;;;;;;;13.29;92.45;100251.34;5053176;28;20027;-36
2023/03/24 10:56:42;;;;;;;5.28;1.75;;;;;;;13.30;92.93;100244.81;5054204;28;20108;-37
2023/03/24 10:59:26;;;;;;;6.97;2.00;;;;;;;13.11;90.50;100256.06;5053767;28;20457;-36
2023/03/24 11:02:10;;;;;;;7.35;1.88;;;;;;;12.95;91.64;100258.97;5053430;28;20057;-37
2023/03/24 11:04:48;;;;;;;6.28;1.80;;;;;;;12.89;89.49;100252.69;5053950;28;20428;-36
2023/03/24 11:07:19;;;;;;;6.25;2.42;;;;;;;12.96;88.59;100252.44;5054002;28;20035;-36
2023/03/24 11:10:10;;;;;;;6.32;1.70;;;;;;;13.02;88.38;100245.97;5053441;28;20099;-37
2023/03/24 11:13:03;;;;;;;4.13;1.42;;;;;;;13.19;89.91;100253.97;5054210;28;20113;-36
2023/03/24 11:15:31;;;;;;;7.43;1.48;;;;;;;13.40;88.71;100245.69;5052764;28;20037;-36
2023/03/24 11:18:07;;;;;;;5.05;1.50;;;;;;;13.42;86.44;100242.72;5053287;28;20029;-36
2023/03/24 11:20:36;;;;;;;8.80;2.47;;;;;;;13.26;84.38;100239.09;5053338;28;20134;-35
2023/03/24 11:23:05;;;;;;;7.70;1.92;;;;;;;13.16;85.36;100258.00;5053276;28;20017;-36
2023/03/24 11:25:35;;;;;;;6.20;1.85;;;;;;;12.99;86.03;100255.47;5053824;28;20028;-35
2023/03/24 11:28:07;;;;;;;7.68;1.92;;;;;;;12.82;87.07;100257.50;5053180;28;20116;-36
2023/03/24 11:30:44;;;;;;;5.88;1.60;;;;;;;12.74;89.36;100255.28;5053104;28;20033;-37
2023/03/24 11:33:18;;;;;;;7.88;2.25;;;;;;;12.64;89.41;100264.16;5053774;28;20021;-37
2023/03/24 11:35:43;;;;;;;7.95;1.88;;;;;;;12.74;93.67;100252.56;5053228;28;20029;-36
2023/03/24 11:38:18;;;;;;;6.35;1.95;;;;;;;12.75;94.60;100236.03;5053743;28;20091;-36